createdAt,value
2022-07-29T00:02:27.226Z,17.83
2022-07-29T00:04:54.066Z,17.81
2022-07-29T00:07:21.063Z,17.79
2022-07-29T00:09:52.119Z,17.74
2022-07-29T00:12:25.496Z,17.73
2022-07-29T00:14:56.395Z,17.71
2022-07-29T00:17:24.787Z,17.69
2022-07-29T00:19:51.832Z,17.67
2022-07-29T00:22:20.562Z,17.68
2022-07-29T00:24:48.766Z,17.65
2022-07-29T00:27:15.501Z,17.66
2022-07-29T00:29:42.113Z,17.63
2022-07-29T00:32:08.724Z,17.61
2022-07-29T00:34:53.997Z,17.60
2022-07-29T00:37:20.644Z,17.60
2022-07-29T00:39:47.253Z,17.54
2022-07-29T00:42:15.163Z,17.53
2022-07-29T00:44:42.862Z,17.49
2022-07-29T00:47:11.630Z,17.50
2022-07-29T00:49:42.641Z,17.49
2022-07-29T00:52:11.407Z,17.49
2022-07-29T00:54:44.035Z,17.49
2022-07-29T00:57:13.397Z,17.40
2022-07-29T00:59:41.432Z,17.42
2022-07-29T01:02:08.011Z,17.36
2022-07-29T01:04:34.999Z,17.33
2022-07-29T01:07:05.461Z,17.31
2022-07-29T01:09:46.113Z,17.30
2022-07-29T01:12:27.292Z,17.29
2022-07-29T01:14:56.235Z,17.25
2022-07-29T01:17:29.706Z,17.24
2022-07-29T01:20:31.226Z,17.20
2022-07-29T01:23:14.880Z,17.15
2022-07-29T01:25:58.484Z,17.13
2022-07-29T01:29:07.552Z,17.12
2022-07-29T01:31:56.605Z,17.09
2022-07-29T01:34:34.619Z,17.11
2022-07-29T01:37:24.818Z,17.08
2022-07-29T01:39:55.554Z,17.06
2022-07-29T01:42:35.137Z,17.02
2022-07-29T01:45:10.406Z,17.01
2022-07-29T01:47:51.073Z,16.99
2022-07-29T01:50:20.132Z,16.96
2022-07-29T01:52:57.332Z,16.90
2022-07-29T01:55:29.276Z,16.87
2022-07-29T01:57:59.889Z,16.82
2022-07-29T02:00:28.440Z,16.78
2022-07-29T02:02:57.076Z,16.75
2022-07-29T02:05:27.696Z,16.72
2022-07-29T02:07:56.835Z,16.71
2022-07-29T02:10:27.946Z,16.71
2022-07-29T02:12:57.099Z,16.71
2022-07-29T02:15:26.168Z,16.74
2022-07-29T02:17:57.483Z,16.71
2022-07-29T02:20:26.511Z,16.65
2022-07-29T02:22:55.425Z,16.62
2022-07-29T02:25:25.487Z,16.58
2022-07-29T02:28:05.095Z,16.56
2022-07-29T02:30:32.761Z,16.56
2022-07-29T02:33:00.428Z,16.53
2022-07-29T02:35:27.635Z,16.48
2022-07-29T02:38:19.656Z,16.44
2022-07-29T02:40:47.046Z,16.44
2022-07-29T02:43:13.940Z,16.40
2022-07-29T02:45:40.648Z,16.36
2022-07-29T02:48:14.168Z,16.36
2022-07-29T02:50:49.773Z,16.35
2022-07-29T02:53:21.117Z,16.30
2022-07-29T02:55:56.425Z,16.27
2022-07-29T02:58:50.577Z,16.22
2022-07-29T03:01:22.737Z,16.16
2022-07-29T03:03:51.819Z,16.09
2022-07-29T03:06:37.559Z,16.09
2022-07-29T03:09:10.471Z,16.08
2022-07-29T03:11:49.137Z,16.08
2022-07-29T03:14:20.542Z,16.09
2022-07-29T03:16:50.088Z,16.10
2022-07-29T03:19:17.655Z,16.08
2022-07-29T03:21:44.249Z,16.04
2022-07-29T03:24:11.208Z,16.04
2022-07-29T03:26:38.254Z,16.05
2022-07-29T03:29:04.832Z,16.01
2022-07-29T03:31:32.130Z,16.03
2022-07-29T03:34:00.275Z,16.03
2022-07-29T03:36:26.904Z,16.00
2022-07-29T03:38:53.918Z,15.96
2022-07-29T03:41:23.854Z,15.96
2022-07-29T03:43:55.295Z,15.95
2022-07-29T03:46:24.808Z,15.94
2022-07-29T03:48:56.361Z,15.93
2022-07-29T03:51:33.834Z,15.95
2022-07-29T03:54:07.883Z,15.97
2022-07-29T03:56:43.099Z,15.98
2022-07-29T03:59:12.433Z,15.96
2022-07-29T04:01:40.786Z,15.95
2022-07-29T04:04:07.812Z,15.88
2022-07-29T04:06:45.796Z,15.87
2022-07-29T04:09:16.170Z,15.84
2022-07-29T04:12:03.859Z,15.87
2022-07-29T04:14:30.350Z,15.92
2022-07-29T04:16:56.996Z,15.93
2022-07-29T04:19:23.701Z,15.93
2022-07-29T04:21:50.472Z,15.97
2022-07-29T04:24:17.586Z,15.95
2022-07-29T04:26:44.733Z,15.99
2022-07-29T04:29:12.918Z,16.03
2022-07-29T04:31:39.526Z,16.07
2022-07-29T04:34:06.293Z,16.13
2022-07-29T04:36:33.015Z,16.19
2022-07-29T04:38:59.807Z,16.24
2022-07-29T04:41:32.839Z,16.27
2022-07-29T04:44:02.016Z,16.31
2022-07-29T04:46:29.900Z,16.33
2022-07-29T04:48:56.718Z,16.35
2022-07-29T04:51:23.633Z,16.37
2022-07-29T04:53:50.263Z,16.36
2022-07-29T04:56:16.907Z,16.37
2022-07-29T04:58:43.494Z,16.39
2022-07-29T05:01:10.242Z,16.42
2022-07-29T05:03:36.858Z,16.45
2022-07-29T05:06:03.533Z,16.48
2022-07-29T05:08:30.178Z,16.47
2022-07-29T05:10:56.870Z,16.46
2022-07-29T05:13:23.615Z,16.44
2022-07-29T05:15:52.221Z,16.45
2022-07-29T05:18:18.853Z,16.48
2022-07-29T05:20:45.537Z,16.51
2022-07-29T05:23:13.854Z,16.51
2022-07-29T05:25:42.931Z,16.52
2022-07-29T05:28:11.829Z,16.50
2022-07-29T05:30:38.467Z,16.44
2022-07-29T05:33:05.142Z,16.40
2022-07-29T05:35:31.645Z,16.40
2022-07-29T05:37:58.214Z,16.46
2022-07-29T05:40:24.856Z,16.49
2022-07-29T05:42:51.529Z,16.44
2022-07-29T05:45:18.119Z,16.44
2022-07-29T05:47:44.710Z,16.42
2022-07-29T05:50:11.523Z,16.39
2022-07-29T05:52:38.117Z,16.44
2022-07-29T05:55:06.557Z,16.45
2022-07-29T05:57:33.718Z,16.46
2022-07-29T06:00:01.516Z,16.52
2022-07-29T06:02:28.122Z,16.62
2022-07-29T06:04:54.927Z,16.68
2022-07-29T06:07:21.750Z,16.74
2022-07-29T06:09:48.534Z,16.80
2022-07-29T06:12:15.448Z,16.84
2022-07-29T06:14:42.169Z,16.88
2022-07-29T06:17:08.889Z,16.91
2022-07-29T06:19:36.429Z,16.95
2022-07-29T06:22:03.347Z,16.99
2022-07-29T06:24:30.032Z,17.02
2022-07-29T06:26:57.002Z,17.05
2022-07-29T06:29:23.659Z,17.09
2022-07-29T06:31:51.494Z,17.12
2022-07-29T06:34:18.337Z,17.11
2022-07-29T06:36:46.060Z,17.12
2022-07-29T06:39:13.018Z,17.12
2022-07-29T06:41:39.771Z,17.08
2022-07-29T06:44:06.357Z,17.08
2022-07-29T06:46:33.758Z,17.06
2022-07-29T06:49:02.535Z,17.09
2022-07-29T06:51:29.707Z,17.11
2022-07-29T06:54:02.412Z,17.04
2022-07-29T06:56:44.979Z,17.00
2022-07-29T06:59:13.276Z,17.00
2022-07-29T07:01:42.867Z,16.96
2022-07-29T07:04:10.792Z,16.92
2022-07-29T07:06:38.015Z,16.89
2022-07-29T07:09:05.123Z,16.84
2022-07-29T07:11:31.850Z,16.81
2022-07-29T07:14:03.340Z,16.76
2022-07-29T07:16:31.973Z,16.75
2022-07-29T07:18:58.774Z,16.74
2022-07-29T07:21:25.387Z,16.70
2022-07-29T07:23:52.038Z,16.67
2022-07-29T07:26:18.584Z,16.69
2022-07-29T07:28:45.222Z,16.68
2022-07-29T07:31:12.907Z,16.70
2022-07-29T07:33:39.517Z,16.72
2022-07-29T07:36:06.299Z,16.83
2022-07-29T07:38:33.007Z,16.84
2022-07-29T07:41:00.246Z,16.85
2022-07-29T07:43:27.092Z,16.89
2022-07-29T07:45:54.825Z,16.94
2022-07-29T07:48:21.923Z,16.98
2022-07-29T07:50:50.339Z,17.02
2022-07-29T07:53:17.374Z,17.01
2022-07-29T07:56:09.452Z,16.98
2022-07-29T07:58:31.299Z,16.97
2022-07-29T08:00:57.982Z,17.00
2022-07-29T08:03:24.762Z,17.00
2022-07-29T08:05:55.368Z,17.02
2022-07-29T08:08:22.075Z,17.03
2022-07-29T08:10:54.885Z,17.05
2022-07-29T08:13:23.985Z,17.07
2022-07-29T08:16:12.422Z,17.05
2022-07-29T08:18:41.064Z,17.10
2022-07-29T08:21:08.229Z,17.18
2022-07-29T08:24:00.839Z,17.24
2022-07-29T08:26:28.566Z,17.29
2022-07-29T08:28:55.308Z,17.29
2022-07-29T08:31:23.024Z,17.30
2022-07-29T08:33:49.621Z,17.31
2022-07-29T08:36:16.332Z,17.29
2022-07-29T08:38:42.970Z,17.25
2022-07-29T08:41:09.739Z,17.24
2022-07-29T08:43:38.471Z,17.26
2022-07-29T08:46:05.467Z,17.29
2022-07-29T08:48:32.813Z,17.29
2022-07-29T08:51:01.476Z,17.30
2022-07-29T08:53:29.750Z,17.35
2022-07-29T08:55:57.111Z,17.35
2022-07-29T08:58:26.366Z,17.37
2022-07-29T09:00:56.765Z,17.36
2022-07-29T09:03:26.748Z,17.35
2022-07-29T09:05:54.030Z,17.37
2022-07-29T09:08:21.265Z,17.38
2022-07-29T09:10:48.073Z,17.41
2022-07-29T09:13:14.782Z,17.45
2022-07-29T09:15:41.442Z,17.46
2022-07-29T09:18:08.031Z,17.49
2022-07-29T09:21:11.907Z,17.50
2022-07-29T09:23:38.658Z,17.50
2022-07-29T09:26:07.109Z,17.54
2022-07-29T09:28:33.817Z,17.52
2022-07-29T09:31:00.458Z,17.55
2022-07-29T09:33:36.685Z,17.57
2022-07-29T09:36:07.113Z,17.58
2022-07-29T09:38:34.686Z,17.59
2022-07-29T09:41:05.778Z,17.60
2022-07-29T09:43:33.962Z,17.59
2022-07-29T09:46:15.974Z,17.61
2022-07-29T09:48:42.857Z,17.62
2022-07-29T09:51:23.069Z,17.62
2022-07-29T09:53:53.725Z,17.61
2022-07-29T09:56:20.345Z,17.62
2022-07-29T09:58:47.993Z,17.61
2022-07-29T10:01:16.057Z,17.62
2022-07-29T10:03:53.974Z,17.68
2022-07-29T10:06:20.592Z,17.73
2022-07-29T10:08:47.840Z,17.78
2022-07-29T10:11:17.313Z,17.79
2022-07-29T10:13:45.535Z,17.84
2022-07-29T10:16:13.986Z,17.89
2022-07-29T10:18:42.764Z,17.94
2022-07-29T10:21:11.071Z,17.98
2022-07-29T10:23:50.300Z,18.00
2022-07-29T10:26:18.006Z,18.01
2022-07-29T10:28:45.214Z,17.97
2022-07-29T10:31:23.439Z,17.96
2022-07-29T10:34:12.986Z,17.95
2022-07-29T10:36:54.441Z,17.99
2022-07-29T10:39:41.570Z,18.02
2022-07-29T10:42:29.765Z,18.03
2022-07-29T10:45:01.785Z,18.02
2022-07-29T10:47:28.597Z,17.99
2022-07-29T10:50:01.302Z,17.98
2022-07-29T10:52:53.771Z,17.98
2022-07-29T10:55:49.530Z,18.02
2022-07-29T10:58:27.353Z,17.98
2022-07-29T11:00:56.306Z,17.99
2022-07-29T11:03:50.410Z,18.03
2022-07-29T11:06:26.358Z,18.02
2022-07-29T11:09:16.683Z,18.02
2022-07-29T11:15:02.461Z,18.07
2022-07-29T11:17:46.956Z,17.99
2022-07-29T11:20:36.552Z,18.02
2022-07-29T11:23:34.100Z,17.98
2022-07-29T11:26:21.093Z,17.99
2022-07-29T11:28:52.290Z,18.07
2022-07-29T11:31:55.887Z,18.14
2022-07-29T11:34:34.847Z,18.30
2022-07-29T11:37:10.576Z,18.39
2022-07-29T11:39:39.886Z,18.51
2022-07-29T11:42:28.467Z,18.59
2022-07-29T11:45:41.702Z,18.76
2022-07-29T11:48:26.948Z,18.91
2022-07-29T11:50:48.358Z,19.02
2022-07-29T11:53:16.216Z,19.14
2022-07-29T11:55:50.939Z,19.29
2022-07-29T11:58:25.116Z,19.45
2022-07-29T12:00:55.354Z,19.54
2022-07-29T12:03:35.197Z,19.60
2022-07-29T12:06:13.086Z,19.66
2022-07-29T12:08:44.504Z,19.69
2022-07-29T12:11:22.757Z,19.80
2022-07-29T12:13:52.221Z,19.92
2022-07-29T12:16:25.341Z,20.07
2022-07-29T12:18:59.871Z,20.16
2022-07-29T12:21:28.819Z,20.17
2022-07-29T12:24:05.842Z,20.22
2022-07-29T12:26:36.668Z,20.25
2022-07-29T12:29:03.967Z,20.31
2022-07-29T12:31:43.493Z,20.43
2022-07-29T12:34:12.957Z,20.56
2022-07-29T12:36:40.128Z,20.64
2022-07-29T12:39:06.974Z,20.78
2022-07-29T12:41:33.584Z,20.92
2022-07-29T12:44:00.159Z,21.04
2022-07-29T12:46:27.229Z,21.22
2022-07-29T12:48:55.907Z,21.40
2022-07-29T12:51:38.352Z,21.71
2022-07-29T12:54:14.527Z,21.98
2022-07-29T12:56:44.468Z,22.12
2022-07-29T12:59:16.602Z,22.33
2022-07-29T13:01:44.006Z,22.49
2022-07-29T13:04:10.880Z,22.60
2022-07-29T13:06:51.176Z,22.73
2022-07-29T13:09:23.406Z,22.75
2022-07-29T13:11:52.731Z,22.68
2022-07-29T13:14:36.274Z,22.65
2022-07-29T13:17:08.487Z,22.65
2022-07-29T13:19:41.614Z,22.64
2022-07-29T13:22:12.554Z,22.76
2022-07-29T13:24:57.517Z,22.87
2022-07-29T13:27:29.677Z,22.92
2022-07-29T13:29:58.647Z,22.97
2022-07-29T13:32:29.264Z,22.98
2022-07-29T13:35:04.988Z,22.93
2022-07-29T13:37:35.297Z,22.91
2022-07-29T13:40:04.217Z,22.88
2022-07-29T13:42:31.231Z,22.84
2022-07-29T13:44:58.320Z,22.84
2022-07-29T13:47:32.370Z,22.84
2022-07-29T13:50:02.553Z,22.91
2022-07-29T13:52:29.778Z,22.98
2022-07-29T13:54:56.923Z,23.03
2022-07-29T13:57:23.629Z,23.03
2022-07-29T13:59:54.174Z,23.06
2022-07-29T14:02:25.284Z,23.16
2022-07-29T14:04:55.863Z,23.31
2022-07-29T14:07:23.080Z,23.47
2022-07-29T14:09:49.623Z,23.69
2022-07-29T14:12:16.222Z,23.90
2022-07-29T14:14:43.004Z,23.93
2022-07-29T14:17:10.383Z,23.93
2022-07-29T14:19:38.854Z,23.98
2022-07-29T14:22:07.196Z,23.98
2022-07-29T14:24:37.320Z,24.04
2022-07-29T14:27:05.368Z,24.13
2022-07-29T14:29:37.073Z,24.13
2022-07-29T14:32:07.345Z,24.10
2022-07-29T14:34:34.815Z,24.01
2022-07-29T14:37:01.692Z,23.98
2022-07-29T14:39:32.029Z,24.09
2022-07-29T14:41:59.613Z,24.15
2022-07-29T14:44:32.139Z,24.24
2022-07-29T14:47:00.672Z,24.27
2022-07-29T14:49:28.668Z,24.34
2022-07-29T14:51:55.558Z,24.22
2022-07-29T14:54:22.598Z,24.26
2022-07-29T14:56:51.824Z,24.31
2022-07-29T14:59:18.397Z,24.24
2022-07-29T15:01:45.139Z,24.20
2022-07-29T15:04:11.702Z,24.26
2022-07-29T15:06:38.975Z,24.26
2022-07-29T15:09:05.699Z,24.32
2022-07-29T15:11:32.326Z,24.37
2022-07-29T15:14:04.789Z,24.42
2022-07-29T15:16:31.416Z,24.43
2022-07-29T15:19:01.343Z,24.36
2022-07-29T15:21:28.691Z,24.35
2022-07-29T15:23:55.393Z,24.32
2022-07-29T15:26:22.459Z,24.35
2022-07-29T15:28:49.243Z,24.38
2022-07-29T15:31:16.053Z,24.37
2022-07-29T15:33:42.719Z,24.36
2022-07-29T15:36:09.650Z,24.35
2022-07-29T15:38:41.763Z,24.30
2022-07-29T15:41:09.129Z,24.29
2022-07-29T15:43:36.256Z,24.25
2022-07-29T15:46:21.535Z,24.18
2022-07-29T15:48:48.420Z,24.16
2022-07-29T15:51:15.303Z,24.13
2022-07-29T15:53:42.043Z,24.13
2022-07-29T15:56:08.687Z,24.15
2022-07-29T15:58:35.316Z,24.21
2022-07-29T16:01:02.031Z,24.27
2022-07-29T16:03:28.793Z,24.31
2022-07-29T16:05:57.414Z,24.32
2022-07-29T16:08:24.217Z,24.33
2022-07-29T16:10:50.897Z,24.37
2022-07-29T16:13:18.762Z,24.36
2022-07-29T16:16:02.803Z,24.39
2022-07-29T16:18:30.344Z,24.41
2022-07-29T16:20:57.492Z,24.38
2022-07-29T16:23:24.755Z,24.30
2022-07-29T16:25:59.660Z,24.23
2022-07-29T16:28:27.859Z,24.20
2022-07-29T16:30:54.641Z,24.19
2022-07-29T16:33:21.255Z,24.17
2022-07-29T16:35:47.838Z,24.19
2022-07-29T16:38:14.458Z,24.16
2022-07-29T16:40:41.149Z,24.16
2022-07-29T16:43:08.088Z,24.16
2022-07-29T16:45:45.308Z,24.16
2022-07-29T16:48:12.814Z,24.18
2022-07-29T16:50:40.093Z,24.16
2022-07-29T16:53:07.116Z,24.13
2022-07-29T16:55:33.961Z,24.10
2022-07-29T16:58:00.694Z,24.10
2022-07-29T17:00:27.339Z,24.06
2022-07-29T17:02:53.937Z,24.05
2022-07-29T17:05:20.576Z,24.05
2022-07-29T17:07:47.575Z,24.06
2022-07-29T17:10:14.214Z,24.05
2022-07-29T17:12:41.262Z,24.03
2022-07-29T17:15:10.873Z,24.00
2022-07-29T17:17:38.611Z,24.00
2022-07-29T17:20:08.900Z,23.99
2022-07-29T17:22:35.847Z,23.98
2022-07-29T17:25:04.336Z,23.95
2022-07-29T17:27:32.029Z,23.90
2022-07-29T17:29:59.935Z,23.89
2022-07-29T17:32:26.535Z,23.89
2022-07-29T17:34:53.611Z,23.87
2022-07-29T17:37:20.801Z,23.85
2022-07-29T17:39:48.334Z,23.82
2022-07-29T17:42:15.111Z,23.79
2022-07-29T17:44:41.863Z,23.76
2022-07-29T17:47:16.002Z,23.71
2022-07-29T17:49:44.116Z,23.70
2022-07-29T17:52:11.564Z,23.65
2022-07-29T17:54:38.119Z,23.62
2022-07-29T17:57:04.695Z,23.62
2022-07-29T17:59:31.428Z,23.59
2022-07-29T18:01:58.152Z,23.55
2022-07-29T18:04:25.104Z,23.52
2022-07-29T18:06:51.725Z,23.47
2022-07-29T18:09:18.549Z,23.46
2022-07-29T18:11:46.297Z,23.41
2022-07-29T18:14:13.575Z,23.36
2022-07-29T18:16:40.618Z,23.30
2022-07-29T18:19:07.460Z,23.24
2022-07-29T18:21:43.771Z,23.20
2022-07-29T18:24:25.791Z,23.15
2022-07-29T18:26:52.797Z,23.11
2022-07-29T18:29:20.447Z,23.05
2022-07-29T18:31:47.086Z,23.01
2022-07-29T18:34:13.754Z,22.96
2022-07-29T18:36:40.387Z,22.90
2022-07-29T18:39:06.938Z,22.85
2022-07-29T18:41:46.099Z,22.80
2022-07-29T18:44:17.632Z,22.74
2022-07-29T18:46:47.227Z,22.69
2022-07-29T18:49:15.213Z,22.63
2022-07-29T18:51:42.770Z,22.56
2022-07-29T18:54:10.542Z,22.51
2022-07-29T18:56:37.326Z,22.45
2022-07-29T18:59:04.321Z,22.39
2022-07-29T19:01:31.690Z,22.33
2022-07-29T19:03:59.160Z,22.28
2022-07-29T19:06:26.164Z,22.22
2022-07-29T19:08:53.415Z,22.16
2022-07-29T19:11:19.985Z,22.11
2022-07-29T19:13:46.606Z,22.04
2022-07-29T19:16:14.087Z,21.97
2022-07-29T19:18:41.593Z,21.92
2022-07-29T19:21:08.192Z,21.86
2022-07-29T19:24:01.573Z,21.80
2022-07-29T19:26:21.535Z,21.72
2022-07-29T19:28:48.846Z,21.64
2022-07-29T19:31:16.015Z,21.55
2022-07-29T19:33:42.867Z,21.48
2022-07-29T19:36:09.511Z,21.41
2022-07-29T19:38:38.189Z,21.33
2022-07-29T19:41:06.327Z,21.26
2022-07-29T19:43:50.631Z,21.19
2022-07-29T19:46:20.011Z,21.11
2022-07-29T19:48:46.656Z,21.04
2022-07-29T19:51:13.370Z,20.97
2022-07-29T19:53:40.254Z,20.92
2022-07-29T19:56:08.850Z,20.87
2022-07-29T19:58:35.794Z,20.80
2022-07-29T20:01:02.918Z,20.73
2022-07-29T20:03:39.743Z,20.69
2022-07-29T20:06:07.552Z,20.65
2022-07-29T20:08:34.209Z,20.62
2022-07-29T20:11:00.993Z,20.58
2022-07-29T20:13:27.848Z,20.53
2022-07-29T20:15:54.485Z,20.49
2022-07-29T20:18:21.171Z,20.44
2022-07-29T20:20:49.560Z,20.41
2022-07-29T20:23:17.134Z,20.38
2022-07-29T20:25:43.740Z,20.33
2022-07-29T20:28:10.397Z,20.29
2022-07-29T20:30:38.591Z,20.25
2022-07-29T20:33:05.766Z,20.19
2022-07-29T20:35:32.672Z,20.15
2022-07-29T20:38:00.384Z,20.09
2022-07-29T20:40:29.168Z,20.05
2022-07-29T20:42:56.283Z,20.00
2022-07-29T20:45:23.636Z,19.96
2022-07-29T20:47:52.840Z,19.94
2022-07-29T20:50:23.759Z,19.92
2022-07-29T20:52:51.775Z,19.89
2022-07-29T20:55:19.473Z,19.87
2022-07-29T20:57:46.040Z,19.84
2022-07-29T21:00:13.189Z,19.79
2022-07-29T21:02:39.948Z,19.72
2022-07-29T21:05:06.706Z,19.66
2022-07-29T21:07:33.353Z,19.66
2022-07-29T21:09:59.969Z,19.63
2022-07-29T21:12:26.616Z,19.61
2022-07-29T21:14:53.222Z,19.57
2022-07-29T21:17:22.399Z,19.52
2022-07-29T21:19:52.598Z,19.51
2022-07-29T21:22:21.968Z,19.49
2022-07-29T21:24:49.329Z,19.45
2022-07-29T21:27:34.877Z,19.41
2022-07-29T21:30:01.620Z,19.35
2022-07-29T21:32:30.138Z,19.31
2022-07-29T21:34:57.457Z,19.26
2022-07-29T21:37:24.452Z,19.23
2022-07-29T21:39:51.133Z,19.20
2022-07-29T21:42:20.398Z,19.18
2022-07-29T21:44:49.123Z,19.13
2022-07-29T21:47:15.872Z,19.10
2022-07-29T21:49:43.428Z,19.05
2022-07-29T21:52:10.056Z,19.00
2022-07-29T21:54:39.018Z,18.98
2022-07-29T21:57:05.842Z,18.94
2022-07-29T21:59:32.569Z,18.92
2022-07-29T22:02:01.035Z,18.89
2022-07-29T22:04:31.273Z,18.86
2022-07-29T22:06:58.841Z,18.80
2022-07-29T22:09:25.737Z,18.75
2022-07-29T22:11:52.394Z,18.69
2022-07-29T22:14:19.065Z,18.64
2022-07-29T22:16:47.044Z,18.60
2022-07-29T22:19:14.421Z,18.59
2022-07-29T22:21:42.217Z,18.58
2022-07-29T22:24:10.388Z,18.56
2022-07-29T22:26:37.606Z,18.52
2022-07-29T22:29:04.369Z,18.48
2022-07-29T22:31:30.905Z,18.42
2022-07-29T22:33:57.549Z,18.35
2022-07-29T22:36:25.034Z,18.34
2022-07-29T22:38:52.096Z,18.27
2022-07-29T22:41:18.964Z,18.20
2022-07-29T22:43:45.671Z,18.18
2022-07-29T22:46:12.370Z,18.16
2022-07-29T22:48:39.117Z,18.17
2022-07-29T22:51:05.862Z,18.16
2022-07-29T22:53:32.460Z,18.14
2022-07-29T22:56:00.071Z,18.15
2022-07-29T22:58:26.743Z,18.13
2022-07-29T23:00:53.546Z,18.10
2022-07-29T23:03:20.684Z,18.11
2022-07-29T23:05:47.295Z,18.07
2022-07-29T23:08:13.879Z,18.04
2022-07-29T23:10:40.433Z,17.98
2022-07-29T23:13:07.392Z,17.94
2022-07-29T23:15:33.948Z,17.88
2022-07-29T23:18:00.927Z,17.84
2022-07-29T23:20:27.875Z,17.77
2022-07-29T23:22:54.529Z,17.70
2022-07-29T23:25:21.343Z,17.68
2022-07-29T23:27:47.933Z,17.68
2022-07-29T23:30:14.563Z,17.66
2022-07-29T23:32:41.088Z,17.64
2022-07-29T23:35:08.467Z,17.59
2022-07-29T23:37:35.373Z,17.53
2022-07-29T23:40:04.195Z,17.51
2022-07-29T23:42:30.823Z,17.50
2022-07-29T23:44:57.514Z,17.47
2022-07-29T23:47:24.140Z,17.44
2022-07-29T23:49:50.891Z,17.43
2022-07-29T23:52:17.988Z,17.39
2022-07-29T23:54:44.560Z,17.33
2022-07-29T23:57:11.156Z,17.31
2022-07-29T23:59:40.236Z,17.28
